sensor_id;sensor_type;location;lat;lon;timestamp;P1;durP1;ratioP1;P2;durP2;ratioP2
22794;SDS011;11564;50.920;11.612;2023-04-21T00:00:22;52.03;;;30.60;;
22794;SDS011;11564;50.920;11.612;2023-04-21T00:02:48;42.53;;;27.80;;
22794;SDS011;11564;50.920;11.612;2023-04-21T00:05:14;48.70;;;28.90;;
22794;SDS011;11564;50.920;11.612;2023-04-21T00:07:39;50.93;;;29.70;;
22794;SDS011;11564;50.920;11.612;2023-04-21T00:10:08;51.80;;;29.67;;
22794;SDS011;11564;50.920;11.612;2023-04-21T00:12:35;47.00;;;28.00;;
22794;SDS011;11564;50.920;11.612;2023-04-21T00:15:02;51.17;;;29.67;;
22794;SDS011;11564;50.920;11.612;2023-04-21T00:17:28;48.00;;;28.77;;
22794;SDS011;11564;50.920;11.612;2023-04-21T00:19:54;50.47;;;29.23;;
22794;SDS011;11564;50.920;11.612;2023-04-21T00:22:20;42.90;;;26.70;;
22794;SDS011;11564;50.920;11.612;2023-04-21T00:24:46;43.50;;;26.30;;
22794;SDS011;11564;50.920;11.612;2023-04-21T00:27:11;45.90;;;26.77;;
22794;SDS011;11564;50.920;11.612;2023-04-21T00:29:39;39.70;;;26.27;;
22794;SDS011;11564;50.920;11.612;2023-04-21T00:32:05;38.10;;;25.67;;
22794;SDS011;11564;50.920;11.612;2023-04-21T00:34:35;40.67;;;25.00;;
22794;SDS011;11564;50.920;11.612;2023-04-21T00:37:00;40.33;;;23.43;;
22794;SDS011;11564;50.920;11.612;2023-04-21T00:39:26;33.20;;;23.47;;
22794;SDS011;11564;50.920;11.612;2023-04-21T00:41:52;38.13;;;25.07;;
22794;SDS011;11564;50.920;11.612;2023-04-21T00:44:18;38.37;;;24.43;;
22794;SDS011;11564;50.920;11.612;2023-04-21T00:46:43;36.10;;;23.50;;
22794;SDS011;11564;50.920;11.612;2023-04-21T00:49:09;36.63;;;24.00;;
22794;SDS011;11564;50.920;11.612;2023-04-21T00:51:35;31.00;;;22.93;;
22794;SDS011;11564;50.920;11.612;2023-04-21T00:54:02;37.97;;;24.37;;
22794;SDS011;11564;50.920;11.612;2023-04-21T00:56:30;34.43;;;22.47;;
22794;SDS011;11564;50.920;11.612;2023-04-21T00:58:57;27.23;;;21.00;;
22794;SDS011;11564;50.920;11.612;2023-04-21T01:01:24;37.60;;;22.73;;
22794;SDS011;11564;50.920;11.612;2023-04-21T01:03:53;35.50;;;23.60;;
22794;SDS011;11564;50.920;11.612;2023-04-21T01:06:21;31.50;;;21.73;;
22794;SDS011;11564;50.920;11.612;2023-04-21T01:08:47;35.40;;;22.07;;
22794;SDS011;11564;50.920;11.612;2023-04-21T01:11:13;33.20;;;21.13;;
22794;SDS011;11564;50.920;11.612;2023-04-21T01:13:39;41.87;;;23.70;;
22794;SDS011;11564;50.920;11.612;2023-04-21T01:16:05;31.40;;;22.10;;
22794;SDS011;11564;50.920;11.612;2023-04-21T01:18:34;34.70;;;20.80;;
22794;SDS011;11564;50.920;11.612;2023-04-21T01:21:02;30.27;;;21.60;;
22794;SDS011;11564;50.920;11.612;2023-04-21T01:23:28;33.70;;;21.37;;
22794;SDS011;11564;50.920;11.612;2023-04-21T01:25:53;33.27;;;22.00;;
22794;SDS011;11564;50.920;11.612;2023-04-21T01:28:22;35.47;;;22.63;;
22794;SDS011;11564;50.920;11.612;2023-04-21T01:30:49;43.10;;;25.17;;
22794;SDS011;11564;50.920;11.612;2023-04-21T01:33:15;35.47;;;22.63;;
22794;SDS011;11564;50.920;11.612;2023-04-21T01:35:42;50.33;;;27.80;;
22794;SDS011;11564;50.920;11.612;2023-04-21T01:38:08;41.37;;;26.00;;
22794;SDS011;11564;50.920;11.612;2023-04-21T01:40:34;41.50;;;26.27;;
22794;SDS011;11564;50.920;11.612;2023-04-21T01:42:59;45.13;;;27.20;;
22794;SDS011;11564;50.920;11.612;2023-04-21T01:45:25;41.70;;;25.70;;
22794;SDS011;11564;50.920;11.612;2023-04-21T01:47:51;35.33;;;22.70;;
22794;SDS011;11564;50.920;11.612;2023-04-21T01:50:17;37.73;;;24.37;;
22794;SDS011;11564;50.920;11.612;2023-04-21T01:52:42;38.10;;;24.93;;
22794;SDS011;11564;50.920;11.612;2023-04-21T01:55:08;34.47;;;22.77;;
22794;SDS011;11564;50.920;11.612;2023-04-21T01:57:34;37.40;;;25.93;;
22794;SDS011;11564;50.920;11.612;2023-04-21T02:00:00;49.47;;;24.13;;
22794;SDS011;11564;50.920;11.612;2023-04-21T02:02:26;31.63;;;22.37;;
22794;SDS011;11564;50.920;11.612;2023-04-21T02:04:51;34.03;;;22.10;;
22794;SDS011;11564;50.920;11.612;2023-04-21T02:07:17;37.00;;;22.40;;
22794;SDS011;11564;50.920;11.612;2023-04-21T02:09:43;38.53;;;24.00;;
22794;SDS011;11564;50.920;11.612;2023-04-21T02:12:08;38.50;;;22.80;;
22794;SDS011;11564;50.920;11.612;2023-04-21T02:14:35;35.17;;;22.40;;
22794;SDS011;11564;50.920;11.612;2023-04-21T02:17:01;37.27;;;24.50;;
22794;SDS011;11564;50.920;11.612;2023-04-21T02:19:27;37.33;;;24.23;;
22794;SDS011;11564;50.920;11.612;2023-04-21T02:21:53;38.30;;;23.60;;
22794;SDS011;11564;50.920;11.612;2023-04-21T02:24:19;38.90;;;24.20;;
22794;SDS011;11564;50.920;11.612;2023-04-21T02:26:45;33.10;;;22.03;;
22794;SDS011;11564;50.920;11.612;2023-04-21T02:29:11;39.30;;;24.57;;
22794;SDS011;11564;50.920;11.612;2023-04-21T02:31:37;37.90;;;23.73;;
22794;SDS011;11564;50.920;11.612;2023-04-21T02:34:02;42.23;;;23.47;;
22794;SDS011;11564;50.920;11.612;2023-04-21T02:36:28;41.37;;;24.97;;
22794;SDS011;11564;50.920;11.612;2023-04-21T02:38:53;40.60;;;26.03;;
22794;SDS011;11564;50.920;11.612;2023-04-21T02:41:19;47.30;;;27.63;;
22794;SDS011;11564;50.920;11.612;2023-04-21T02:43:45;38.77;;;24.47;;
22794;SDS011;11564;50.920;11.612;2023-04-21T02:46:10;40.33;;;25.53;;
22794;SDS011;11564;50.920;11.612;2023-04-21T02:48:36;50.40;;;28.33;;
22794;SDS011;11564;50.920;11.612;2023-04-21T02:51:02;38.77;;;25.30;;
22794;SDS011;11564;50.920;11.612;2023-04-21T02:53:28;47.63;;;27.83;;
22794;SDS011;11564;50.920;11.612;2023-04-21T02:55:54;46.30;;;26.17;;
22794;SDS011;11564;50.920;11.612;2023-04-21T02:58:20;46.10;;;28.73;;
22794;SDS011;11564;50.920;11.612;2023-04-21T03:00:46;40.67;;;25.33;;
22794;SDS011;11564;50.920;11.612;2023-04-21T03:03:11;48.47;;;27.40;;
22794;SDS011;11564;50.920;11.612;2023-04-21T03:05:39;49.30;;;28.00;;
22794;SDS011;11564;50.920;11.612;2023-04-21T03:08:05;50.87;;;26.80;;
22794;SDS011;11564;50.920;11.612;2023-04-21T03:10:31;43.30;;;26.43;;
22794;SDS011;11564;50.920;11.612;2023-04-21T03:12:56;49.50;;;26.90;;
22794;SDS011;11564;50.920;11.612;2023-04-21T03:15:22;43.63;;;25.33;;
22794;SDS011;11564;50.920;11.612;2023-04-21T03:17:48;43.43;;;27.87;;
22794;SDS011;11564;50.920;11.612;2023-04-21T03:20:13;42.03;;;25.90;;
22794;SDS011;11564;50.920;11.612;2023-04-21T03:22:40;39.10;;;25.57;;
22794;SDS011;11564;50.920;11.612;2023-04-21T03:25:06;48.03;;;24.90;;
22794;SDS011;11564;50.920;11.612;2023-04-21T03:27:32;42.87;;;24.53;;
22794;SDS011;11564;50.920;11.612;2023-04-21T03:29:58;42.13;;;25.00;;
22794;SDS011;11564;50.920;11.612;2023-04-21T03:32:24;45.87;;;24.50;;
22794;SDS011;11564;50.920;11.612;2023-04-21T03:34:50;41.97;;;24.37;;
22794;SDS011;11564;50.920;11.612;2023-04-21T03:37:16;44.83;;;24.80;;
22794;SDS011;11564;50.920;11.612;2023-04-21T03:39:41;41.43;;;22.67;;
22794;SDS011;11564;50.920;11.612;2023-04-21T03:42:07;39.20;;;24.50;;
22794;SDS011;11564;50.920;11.612;2023-04-21T03:44:32;36.73;;;23.13;;
22794;SDS011;11564;50.920;11.612;2023-04-21T03:46:58;37.83;;;23.00;;
22794;SDS011;11564;50.920;11.612;2023-04-21T03:49:23;37.17;;;23.60;;
22794;SDS011;11564;50.920;11.612;2023-04-21T03:51:49;36.10;;;23.67;;
22794;SDS011;11564;50.920;11.612;2023-04-21T03:54:15;39.73;;;22.30;;
22794;SDS011;11564;50.920;11.612;2023-04-21T03:56:40;38.13;;;22.90;;
22794;SDS011;11564;50.920;11.612;2023-04-21T03:59:06;35.90;;;21.43;;
22794;SDS011;11564;50.920;11.612;2023-04-21T04:01:34;37.80;;;21.90;;
22794;SDS011;11564;50.920;11.612;2023-04-21T04:04:00;37.43;;;21.80;;
22794;SDS011;11564;50.920;11.612;2023-04-21T04:06:26;33.00;;;20.73;;
22794;SDS011;11564;50.920;11.612;2023-04-21T04:08:52;33.20;;;20.20;;
22794;SDS011;11564;50.920;11.612;2023-04-21T04:11:18;32.53;;;21.20;;
22794;SDS011;11564;50.920;11.612;2023-04-21T04:13:43;38.03;;;21.17;;
22794;SDS011;11564;50.920;11.612;2023-04-21T04:16:09;33.30;;;20.83;;
22794;SDS011;11564;50.920;11.612;2023-04-21T04:18:35;35.80;;;21.20;;
22794;SDS011;11564;50.920;11.612;2023-04-21T04:21:04;33.17;;;20.90;;
22794;SDS011;11564;50.920;11.612;2023-04-21T04:23:31;31.80;;;21.80;;
22794;SDS011;11564;50.920;11.612;2023-04-21T04:25:57;40.50;;;21.17;;
22794;SDS011;11564;50.920;11.612;2023-04-21T04:28:23;41.90;;;21.30;;
22794;SDS011;11564;50.920;11.612;2023-04-21T04:30:49;37.67;;;21.27;;
22794;SDS011;11564;50.920;11.612;2023-04-21T04:33:14;39.37;;;22.73;;
22794;SDS011;11564;50.920;11.612;2023-04-21T04:35:40;39.43;;;20.87;;
22794;SDS011;11564;50.920;11.612;2023-04-21T04:38:05;37.43;;;22.33;;
22794;SDS011;11564;50.920;11.612;2023-04-21T04:40:31;37.67;;;22.10;;
22794;SDS011;11564;50.920;11.612;2023-04-21T04:42:57;40.87;;;21.30;;
22794;SDS011;11564;50.920;11.612;2023-04-21T04:45:25;37.70;;;22.97;;
22794;SDS011;11564;50.920;11.612;2023-04-21T04:47:52;44.30;;;21.10;;
22794;SDS011;11564;50.920;11.612;2023-04-21T04:50:18;42.53;;;23.00;;
22794;SDS011;11564;50.920;11.612;2023-04-21T04:52:44;34.60;;;20.97;;
22794;SDS011;11564;50.920;11.612;2023-04-21T04:55:11;30.87;;;20.00;;
22794;SDS011;11564;50.920;11.612;2023-04-21T04:57:37;29.70;;;20.30;;
22794;SDS011;11564;50.920;11.612;2023-04-21T05:00:04;40.30;;;22.70;;
22794;SDS011;11564;50.920;11.612;2023-04-21T05:02:32;36.07;;;21.30;;
22794;SDS011;11564;50.920;11.612;2023-04-21T05:04:58;36.53;;;21.07;;
22794;SDS011;11564;50.920;11.612;2023-04-21T05:07:23;28.87;;;19.93;;
22794;SDS011;11564;50.920;11.612;2023-04-21T05:09:49;31.33;;;21.10;;
22794;SDS011;11564;50.920;11.612;2023-04-21T05:12:15;36.67;;;22.17;;
22794;SDS011;11564;50.920;11.612;2023-04-21T05:14:40;35.47;;;22.70;;
22794;SDS011;11564;50.920;11.612;2023-04-21T05:17:06;33.20;;;20.67;;
22794;SDS011;11564;50.920;11.612;2023-04-21T05:19:34;40.17;;;22.53;;
22794;SDS011;11564;50.920;11.612;2023-04-21T05:22:00;36.93;;;22.33;;
22794;SDS011;11564;50.920;11.612;2023-04-21T05:24:26;34.47;;;22.00;;
22794;SDS011;11564;50.920;11.612;2023-04-21T05:26:51;52.30;;;24.90;;
22794;SDS011;11564;50.920;11.612;2023-04-21T05:29:17;38.43;;;22.70;;
22794;SDS011;11564;50.920;11.612;2023-04-21T05:31:43;39.87;;;23.43;;
22794;SDS011;11564;50.920;11.612;2023-04-21T05:34:08;40.97;;;24.80;;
22794;SDS011;11564;50.920;11.612;2023-04-21T05:36:34;40.63;;;24.37;;
22794;SDS011;11564;50.920;11.612;2023-04-21T05:38:59;39.03;;;25.37;;
22794;SDS011;11564;50.920;11.612;2023-04-21T05:41:25;49.00;;;26.97;;
22794;SDS011;11564;50.920;11.612;2023-04-21T05:43:51;46.20;;;27.30;;
22794;SDS011;11564;50.920;11.612;2023-04-21T05:46:17;42.63;;;25.80;;
22794;SDS011;11564;50.920;11.612;2023-04-21T05:48:43;49.00;;;28.67;;
22794;SDS011;11564;50.920;11.612;2023-04-21T05:51:09;37.20;;;25.90;;
22794;SDS011;11564;50.920;11.612;2023-04-21T05:53:38;39.70;;;26.40;;
22794;SDS011;11564;50.920;11.612;2023-04-21T05:56:05;42.17;;;26.83;;
22794;SDS011;11564;50.920;11.612;2023-04-21T05:58:32;50.53;;;26.40;;
22794;SDS011;11564;50.920;11.612;2023-04-21T06:00:58;38.87;;;26.37;;
22794;SDS011;11564;50.920;11.612;2023-04-21T06:03:24;47.47;;;27.40;;
22794;SDS011;11564;50.920;11.612;2023-04-21T06:05:53;43.33;;;28.57;;
22794;SDS011;11564;50.920;11.612;2023-04-21T06:08:19;38.97;;;25.60;;
22794;SDS011;11564;50.920;11.612;2023-04-21T06:10:45;34.67;;;23.10;;
22794;SDS011;11564;50.920;11.612;2023-04-21T06:13:10;30.83;;;23.57;;
22794;SDS011;11564;50.920;11.612;2023-04-21T06:15:36;32.80;;;23.07;;
22794;SDS011;11564;50.920;11.612;2023-04-21T06:18:02;32.43;;;21.13;;
22794;SDS011;11564;50.920;11.612;2023-04-21T06:20:28;34.53;;;22.07;;
22794;SDS011;11564;50.920;11.612;2023-04-21T06:22:53;31.53;;;20.23;;
22794;SDS011;11564;50.920;11.612;2023-04-21T06:25:19;31.50;;;20.27;;
22794;SDS011;11564;50.920;11.612;2023-04-21T06:27:44;34.27;;;22.60;;
22794;SDS011;11564;50.920;11.612;2023-04-21T06:30:10;28.90;;;20.97;;
22794;SDS011;11564;50.920;11.612;2023-04-21T06:32:36;28.10;;;19.83;;
22794;SDS011;11564;50.920;11.612;2023-04-21T06:35:02;35.43;;;21.83;;
22794;SDS011;11564;50.920;11.612;2023-04-21T06:37:27;32.63;;;19.37;;
22794;SDS011;11564;50.920;11.612;2023-04-21T06:39:53;28.13;;;18.80;;
22794;SDS011;11564;50.920;11.612;2023-04-21T06:42:19;28.87;;;17.20;;
22794;SDS011;11564;50.920;11.612;2023-04-21T06:45:10;22.80;;;14.80;;
22794;SDS011;11564;50.920;11.612;2023-04-21T06:47:36;23.73;;;12.80;;
22794;SDS011;11564;50.920;11.612;2023-04-21T06:50:02;14.83;;;10.40;;
22794;SDS011;11564;50.920;11.612;2023-04-21T06:52:27;15.93;;;11.23;;
22794;SDS011;11564;50.920;11.612;2023-04-21T06:54:53;18.67;;;10.73;;
22794;SDS011;11564;50.920;11.612;2023-04-21T06:57:18;15.97;;;10.70;;
22794;SDS011;11564;50.920;11.612;2023-04-21T06:59:44;14.30;;;9.30;;
22794;SDS011;11564;50.920;11.612;2023-04-21T07:02:10;21.00;;;10.70;;
22794;SDS011;11564;50.920;11.612;2023-04-21T07:04:35;14.50;;;9.20;;
22794;SDS011;11564;50.920;11.612;2023-04-21T07:07:01;13.83;;;9.20;;
22794;SDS011;11564;50.920;11.612;2023-04-21T07:09:26;13.40;;;8.57;;
22794;SDS011;11564;50.920;11.612;2023-04-21T07:11:53;12.63;;;8.30;;
22794;SDS011;11564;50.920;11.612;2023-04-21T07:14:19;13.17;;;9.10;;
22794;SDS011;11564;50.920;11.612;2023-04-21T07:16:45;14.00;;;8.50;;
22794;SDS011;11564;50.920;11.612;2023-04-21T07:19:10;13.13;;;8.40;;
22794;SDS011;11564;50.920;11.612;2023-04-21T07:21:36;19.67;;;9.00;;
22794;SDS011;11564;50.920;11.612;2023-04-21T07:24:02;17.27;;;8.30;;
22794;SDS011;11564;50.920;11.612;2023-04-21T07:26:28;17.43;;;8.43;;
22794;SDS011;11564;50.920;11.612;2023-04-21T07:28:54;11.70;;;8.13;;
22794;SDS011;11564;50.920;11.612;2023-04-21T07:31:22;9.60;;;7.23;;
22794;SDS011;11564;50.920;11.612;2023-04-21T07:33:48;13.90;;;7.50;;
22794;SDS011;11564;50.920;11.612;2023-04-21T07:36:14;10.10;;;6.40;;
22794;SDS011;11564;50.920;11.612;2023-04-21T07:38:40;12.53;;;6.67;;
22794;SDS011;11564;50.920;11.612;2023-04-21T07:41:08;10.80;;;6.27;;
22794;SDS011;11564;50.920;11.612;2023-04-21T07:43:35;9.40;;;6.17;;
22794;SDS011;11564;50.920;11.612;2023-04-21T07:46:00;16.73;;;6.63;;
22794;SDS011;11564;50.920;11.612;2023-04-21T07:48:26;13.07;;;6.13;;
22794;SDS011;11564;50.920;11.612;2023-04-21T07:50:52;16.67;;;6.63;;
22794;SDS011;11564;50.920;11.612;2023-04-21T07:53:17;15.13;;;6.83;;
22794;SDS011;11564;50.920;11.612;2023-04-21T07:55:43;9.07;;;5.97;;
22794;SDS011;11564;50.920;11.612;2023-04-21T07:58:08;7.40;;;5.60;;
22794;SDS011;11564;50.920;11.612;2023-04-21T08:00:35;12.13;;;5.90;;
22794;SDS011;11564;50.920;11.612;2023-04-21T08:03:00;11.90;;;5.30;;
22794;SDS011;11564;50.920;11.612;2023-04-21T08:05:26;8.63;;;5.73;;
22794;SDS011;11564;50.920;11.612;2023-04-21T08:07:53;11.27;;;6.20;;
22794;SDS011;11564;50.920;11.612;2023-04-21T08:10:18;21.00;;;6.60;;
22794;SDS011;11564;50.920;11.612;2023-04-21T08:12:44;12.70;;;6.27;;
22794;SDS011;11564;50.920;11.612;2023-04-21T08:15:10;9.40;;;6.10;;
22794;SDS011;11564;50.920;11.612;2023-04-21T08:17:36;11.27;;;5.87;;
22794;SDS011;11564;50.920;11.612;2023-04-21T08:20:02;10.97;;;5.60;;
22794;SDS011;11564;50.920;11.612;2023-04-21T08:22:28;10.70;;;5.30;;
22794;SDS011;11564;50.920;11.612;2023-04-21T08:24:54;9.57;;;6.13;;
22794;SDS011;11564;50.920;11.612;2023-04-21T08:27:20;5.83;;;5.03;;
22794;SDS011;11564;50.920;11.612;2023-04-21T08:29:46;15.77;;;6.20;;
22794;SDS011;11564;50.920;11.612;2023-04-21T08:32:11;9.33;;;5.97;;
22794;SDS011;11564;50.920;11.612;2023-04-21T08:34:37;15.53;;;5.33;;
22794;SDS011;11564;50.920;11.612;2023-04-21T08:37:03;11.60;;;5.90;;
22794;SDS011;11564;50.920;11.612;2023-04-21T08:39:28;10.73;;;5.60;;
22794;SDS011;11564;50.920;11.612;2023-04-21T08:41:54;8.77;;;5.70;;
22794;SDS011;11564;50.920;11.612;2023-04-21T08:44:21;12.53;;;5.67;;
22794;SDS011;11564;50.920;11.612;2023-04-21T08:46:47;10.40;;;5.93;;
22794;SDS011;11564;50.920;11.612;2023-04-21T08:49:15;17.93;;;5.40;;
22794;SDS011;11564;50.920;11.612;2023-04-21T08:51:44;12.27;;;5.77;;
22794;SDS011;11564;50.920;11.612;2023-04-21T08:54:10;15.00;;;5.40;;
22794;SDS011;11564;50.920;11.612;2023-04-21T08:56:36;15.23;;;6.37;;
22794;SDS011;11564;50.920;11.612;2023-04-21T08:59:04;13.23;;;5.63;;
22794;SDS011;11564;50.920;11.612;2023-04-21T09:01:29;12.30;;;6.03;;
22794;SDS011;11564;50.920;11.612;2023-04-21T09:06:41;13.03;;;6.00;;
22794;SDS011;11564;50.920;11.612;2023-04-21T09:09:10;15.87;;;5.77;;
22794;SDS011;11564;50.920;11.612;2023-04-21T09:11:35;10.03;;;6.47;;
22794;SDS011;11564;50.920;11.612;2023-04-21T09:14:01;8.20;;;5.87;;
22794;SDS011;11564;50.920;11.612;2023-04-21T09:16:29;22.77;;;6.60;;
22794;SDS011;11564;50.920;11.612;2023-04-21T09:18:58;7.63;;;5.50;;
22794;SDS011;11564;50.920;11.612;2023-04-21T09:21:28;8.53;;;5.90;;
22794;SDS011;11564;50.920;11.612;2023-04-21T09:23:54;5.83;;;5.30;;
22794;SDS011;11564;50.920;11.612;2023-04-21T09:26:20;9.37;;;5.23;;
22794;SDS011;11564;50.920;11.612;2023-04-21T09:28:49;13.30;;;5.60;;
22794;SDS011;11564;50.920;11.612;2023-04-21T09:31:17;10.37;;;5.70;;
22794;SDS011;11564;50.920;11.612;2023-04-21T09:33:55;8.73;;;5.60;;
22794;SDS011;11564;50.920;11.612;2023-04-21T09:36:22;14.03;;;5.87;;
22794;SDS011;11564;50.920;11.612;2023-04-21T09:41:18;8.43;;;5.10;;
22794;SDS011;11564;50.920;11.612;2023-04-21T09:43:44;13.33;;;5.33;;
22794;SDS011;11564;50.920;11.612;2023-04-21T09:46:10;9.67;;;5.37;;
22794;SDS011;11564;50.920;11.612;2023-04-21T09:48:37;15.90;;;5.23;;
22794;SDS011;11564;50.920;11.612;2023-04-21T09:51:06;14.13;;;6.23;;
22794;SDS011;11564;50.920;11.612;2023-04-21T09:53:33;8.83;;;5.30;;
22794;SDS011;11564;50.920;11.612;2023-04-21T09:56:02;11.13;;;5.40;;
22794;SDS011;11564;50.920;11.612;2023-04-21T09:58:32;10.80;;;5.47;;
22794;SDS011;11564;50.920;11.612;2023-04-21T10:01:03;12.80;;;5.23;;
22794;SDS011;11564;50.920;11.612;2023-04-21T10:03:30;10.90;;;5.33;;
22794;SDS011;11564;50.920;11.612;2023-04-21T10:05:56;13.33;;;5.30;;
22794;SDS011;11564;50.920;11.612;2023-04-21T10:08:21;5.13;;;4.50;;
22794;SDS011;11564;50.920;11.612;2023-04-21T10:10:47;8.00;;;5.13;;
22794;SDS011;11564;50.920;11.612;2023-04-21T10:13:13;5.97;;;5.30;;
22794;SDS011;11564;50.920;11.612;2023-04-21T10:15:40;6.97;;;4.20;;
22794;SDS011;11564;50.920;11.612;2023-04-21T10:18:24;7.07;;;4.13;;
22794;SDS011;11564;50.920;11.612;2023-04-21T10:20:53;12.30;;;4.30;;
22794;SDS011;11564;50.920;11.612;2023-04-21T10:23:36;5.47;;;4.20;;
22794;SDS011;11564;50.920;11.612;2023-04-21T10:28:40;5.90;;;4.90;;
22794;SDS011;11564;50.920;11.612;2023-04-21T10:31:18;7.70;;;3.90;;
22794;SDS011;11564;50.920;11.612;2023-04-21T10:37:17;5.23;;;3.90;;
22794;SDS011;11564;50.920;11.612;2023-04-21T10:39:28;4.80;;;3.90;;
22794;SDS011;11564;50.920;11.612;2023-04-21T10:41:57;13.70;;;3.90;;
22794;SDS011;11564;50.920;11.612;2023-04-21T10:44:50;8.80;;;4.03;;
22794;SDS011;11564;50.920;11.612;2023-04-21T10:47:26;7.63;;;3.80;;
22794;SDS011;11564;50.920;11.612;2023-04-21T10:49:56;5.23;;;3.97;;
22794;SDS011;11564;50.920;11.612;2023-04-21T10:52:29;9.20;;;4.40;;
22794;SDS011;11564;50.920;11.612;2023-04-21T10:57:23;7.43;;;3.67;;
22794;SDS011;11564;50.920;11.612;2023-04-21T10:59:48;7.10;;;3.73;;
22794;SDS011;11564;50.920;11.612;2023-04-21T11:02:16;7.87;;;3.90;;
22794;SDS011;11564;50.920;11.612;2023-04-21T11:04:43;3.80;;;3.40;;
22794;SDS011;11564;50.920;11.612;2023-04-21T11:07:29;12.27;;;3.70;;
22794;SDS011;11564;50.920;11.612;2023-04-21T11:09:59;8.07;;;3.90;;
22794;SDS011;11564;50.920;11.612;2023-04-21T11:12:29;3.60;;;3.30;;
22794;SDS011;11564;50.920;11.612;2023-04-21T11:14:56;8.23;;;3.50;;
22794;SDS011;11564;50.920;11.612;2023-04-21T11:17:21;9.77;;;3.70;;
22794;SDS011;11564;50.920;11.612;2023-04-21T11:19:49;5.07;;;3.00;;
22794;SDS011;11564;50.920;11.612;2023-04-21T11:22:16;12.07;;;3.90;;
22794;SDS011;11564;50.920;11.612;2023-04-21T11:24:44;5.00;;;3.67;;
22794;SDS011;11564;50.920;11.612;2023-04-21T11:27:10;7.90;;;4.50;;
22794;SDS011;11564;50.920;11.612;2023-04-21T11:29:38;4.67;;;3.00;;
22794;SDS011;11564;50.920;11.612;2023-04-21T11:32:07;14.07;;;3.60;;
22794;SDS011;11564;50.920;11.612;2023-04-21T11:34:35;4.97;;;3.50;;
22794;SDS011;11564;50.920;11.612;2023-04-21T11:37:02;4.23;;;3.80;;
22794;SDS011;11564;50.920;11.612;2023-04-21T11:39:28;4.10;;;3.80;;
22794;SDS011;11564;50.920;11.612;2023-04-21T11:41:54;4.93;;;3.80;;
22794;SDS011;11564;50.920;11.612;2023-04-21T11:44:30;4.03;;;3.53;;
22794;SDS011;11564;50.920;11.612;2023-04-21T11:46:59;4.13;;;3.83;;
22794;SDS011;11564;50.920;11.612;2023-04-21T11:49:25;6.40;;;3.20;;
22794;SDS011;11564;50.920;11.612;2023-04-21T11:51:54;3.40;;;3.20;;
22794;SDS011;11564;50.920;11.612;2023-04-21T11:54:20;10.87;;;3.60;;
22794;SDS011;11564;50.920;11.612;2023-04-21T11:56:48;3.73;;;3.43;;
22794;SDS011;11564;50.920;11.612;2023-04-21T11:59:15;5.50;;;3.40;;
22794;SDS011;11564;50.920;11.612;2023-04-21T12:04:13;6.00;;;3.40;;
22794;SDS011;11564;50.920;11.612;2023-04-21T12:06:41;4.83;;;3.50;;
22794;SDS011;11564;50.920;11.612;2023-04-21T12:09:06;4.23;;;3.80;;
22794;SDS011;11564;50.920;11.612;2023-04-21T12:11:32;5.03;;;3.00;;
22794;SDS011;11564;50.920;11.612;2023-04-21T12:13:59;6.27;;;3.33;;
22794;SDS011;11564;50.920;11.612;2023-04-21T12:16:26;3.57;;;3.17;;
22794;SDS011;11564;50.920;11.612;2023-04-21T12:18:53;7.93;;;3.13;;
22794;SDS011;11564;50.920;11.612;2023-04-21T12:21:20;2.93;;;2.73;;
22794;SDS011;11564;50.920;11.612;2023-04-21T12:23:50;6.33;;;2.87;;
22794;SDS011;11564;50.920;11.612;2023-04-21T12:26:16;4.07;;;3.20;;
22794;SDS011;11564;50.920;11.612;2023-04-21T12:28:41;3.33;;;2.90;;
22794;SDS011;11564;50.920;11.612;2023-04-21T12:31:07;4.10;;;2.77;;
22794;SDS011;11564;50.920;11.612;2023-04-21T12:33:32;6.40;;;2.90;;
22794;SDS011;11564;50.920;11.612;2023-04-21T12:35:58;6.30;;;3.10;;
22794;SDS011;11564;50.920;11.612;2023-04-21T12:38:24;4.73;;;2.20;;
22794;SDS011;11564;50.920;11.612;2023-04-21T12:40:50;3.23;;;3.03;;
22794;SDS011;11564;50.920;11.612;2023-04-21T12:43:15;6.13;;;2.93;;
22794;SDS011;11564;50.920;11.612;2023-04-21T12:45:41;3.63;;;2.90;;
22794;SDS011;11564;50.920;11.612;2023-04-21T12:48:07;17.13;;;3.87;;
22794;SDS011;11564;50.920;11.612;2023-04-21T12:50:32;4.33;;;2.63;;
22794;SDS011;11564;50.920;11.612;2023-04-21T12:52:58;6.87;;;3.23;;
22794;SDS011;11564;50.920;11.612;2023-04-21T12:55:24;4.10;;;2.90;;
22794;SDS011;11564;50.920;11.612;2023-04-21T12:57:49;2.93;;;2.10;;
22794;SDS011;11564;50.920;11.612;2023-04-21T13:00:16;4.43;;;3.50;;
22794;SDS011;11564;50.920;11.612;2023-04-21T13:02:42;4.83;;;2.80;;
22794;SDS011;11564;50.920;11.612;2023-04-21T13:05:08;5.30;;;2.60;;
22794;SDS011;11564;50.920;11.612;2023-04-21T13:07:35;2.70;;;2.50;;
22794;SDS011;11564;50.920;11.612;2023-04-21T13:10:02;3.33;;;2.47;;
22794;SDS011;11564;50.920;11.612;2023-04-21T13:12:30;2.40;;;2.20;;
22794;SDS011;11564;50.920;11.612;2023-04-21T13:14:56;2.97;;;2.40;;
22794;SDS011;11564;50.920;11.612;2023-04-21T13:17:22;3.20;;;2.60;;
22794;SDS011;11564;50.920;11.612;2023-04-21T13:19:47;3.57;;;2.70;;
22794;SDS011;11564;50.920;11.612;2023-04-21T13:22:13;3.13;;;2.50;;
22794;SDS011;11564;50.920;11.612;2023-04-21T13:24:39;2.67;;;2.47;;
22794;SDS011;11564;50.920;11.612;2023-04-21T13:27:04;2.90;;;2.70;;
22794;SDS011;11564;50.920;11.612;2023-04-21T13:29:30;2.30;;;2.10;;
22794;SDS011;11564;50.920;11.612;2023-04-21T13:32:01;2.40;;;2.20;;
22794;SDS011;11564;50.920;11.612;2023-04-21T13:34:29;3.37;;;2.30;;
22794;SDS011;11564;50.920;11.612;2023-04-21T13:36:56;4.77;;;2.40;;
22794;SDS011;11564;50.920;11.612;2023-04-21T13:39:21;1.77;;;1.40;;
22794;SDS011;11564;50.920;11.612;2023-04-21T13:41:47;2.47;;;2.27;;
22794;SDS011;11564;50.920;11.612;2023-04-21T13:44:13;1.93;;;1.83;;
22794;SDS011;11564;50.920;11.612;2023-04-21T13:46:38;2.10;;;2.00;;
22794;SDS011;11564;50.920;11.612;2023-04-21T13:49:04;2.10;;;1.90;;
22794;SDS011;11564;50.920;11.612;2023-04-21T13:51:30;2.50;;;2.30;;
22794;SDS011;11564;50.920;11.612;2023-04-21T13:53:56;1.90;;;1.80;;
22794;SDS011;11564;50.920;11.612;2023-04-21T13:56:22;3.23;;;1.50;;
22794;SDS011;11564;50.920;11.612;2023-04-21T13:58:47;2.10;;;1.88;;
22794;SDS011;11564;50.920;11.612;2023-04-21T14:01:13;6.82;;;2.08;;
22794;SDS011;11564;50.920;11.612;2023-04-21T14:03:39;4.85;;;1.70;;
22794;SDS011;11564;50.920;11.612;2023-04-21T14:06:05;2.10;;;1.35;;
22794;SDS011;11564;50.920;11.612;2023-04-21T14:08:31;2.30;;;2.00;;
22794;SDS011;11564;50.920;11.612;2023-04-21T14:10:57;3.10;;;1.88;;
22794;SDS011;11564;50.920;11.612;2023-04-21T14:13:23;2.83;;;1.60;;
22794;SDS011;11564;50.920;11.612;2023-04-21T14:15:52;1.80;;;1.70;;
22794;SDS011;11564;50.920;11.612;2023-04-21T14:18:19;3.15;;;1.80;;
22794;SDS011;11564;50.920;11.612;2023-04-21T14:20:44;1.63;;;1.52;;
22794;SDS011;11564;50.920;11.612;2023-04-21T14:23:10;1.52;;;1.40;;
22794;SDS011;11564;50.920;11.612;2023-04-21T14:25:36;4.05;;;1.63;;
22794;SDS011;11564;50.920;11.612;2023-04-21T14:28:02;1.92;;;1.50;;
22794;SDS011;11564;50.920;11.612;2023-04-21T14:30:31;2.30;;;2.05;;